createdAt,value
2022-12-08T00:00:02.357Z,322.6
2022-12-08T00:05:07.201Z,322.9
2022-12-08T00:10:47.033Z,328.4
2022-12-08T00:15:02.415Z,326.4
2022-12-08T00:20:01.305Z,338.8
2022-12-08T00:25:02.521Z,348.0
2022-12-08T00:30:01.317Z,376.6
2022-12-08T00:35:07.136Z,381.4
2022-12-08T00:40:01.808Z,404.9
2022-12-08T00:45:01.352Z,437.3
2022-12-08T00:50:02.445Z,430.7
2022-12-08T00:55:01.366Z,451.4
2022-12-08T01:00:02.507Z,461.7
2022-12-08T01:05:01.436Z,493.2
2022-12-08T01:10:07.354Z,498.4
2022-12-08T01:20:02.607Z,540.8
2022-12-08T01:25:01.410Z,560.8
2022-12-08T01:30:03.071Z,521.4
2022-12-08T01:35:01.335Z,511.4
2022-12-08T01:40:02.549Z,534.8
2022-12-08T01:45:01.407Z,516.6
2022-12-08T01:50:02.683Z,490.6
2022-12-08T01:55:01.412Z,533.3
2022-12-08T02:00:02.771Z,551.3
2022-12-08T02:05:01.409Z,525.0
2022-12-08T02:10:04.116Z,535.2
2022-12-08T02:20:07.306Z,569.9
2022-12-08T02:40:08.339Z,518.0
2022-12-08T02:50:07.642Z,581.8
2022-12-08T02:55:02.103Z,576.6
2022-12-08T03:00:03.848Z,576.4
2022-12-08T03:05:07.178Z,577.2
2022-12-08T03:10:04.050Z,576.5
2022-12-08T03:15:01.794Z,574.4
2022-12-08T03:20:03.472Z,575.0
2022-12-08T03:25:01.839Z,577.3
2022-12-08T03:30:02.864Z,575.9
2022-12-08T03:35:01.827Z,575.4
2022-12-08T03:45:01.760Z,538.6
2022-12-08T03:50:03.927Z,538.5
2022-12-08T03:55:01.820Z,540.0
2022-12-08T04:00:03.418Z,539.8
2022-12-08T04:05:01.819Z,531.0
2022-12-08T04:10:07.846Z,578.8
2022-12-08T04:20:03.051Z,580.8
2022-12-08T04:25:04.354Z,582.8
2022-12-08T04:35:01.666Z,528.1
2022-12-08T04:40:07.545Z,514.1
2022-12-08T04:45:01.844Z,531.8
2022-12-08T04:50:03.222Z,522.0
2022-12-08T04:55:01.745Z,570.6
2022-12-08T05:05:01.772Z,570.4
2022-12-08T05:10:03.005Z,554.0
2022-12-08T05:15:01.775Z,532.6
2022-12-08T05:20:07.780Z,516.7
2022-12-08T05:25:01.770Z,510.0
2022-12-08T05:30:02.728Z,490.0
2022-12-08T05:35:02.029Z,504.2
2022-12-08T05:40:02.936Z,508.7
2022-12-08T05:50:08.163Z,432.8
2022-12-08T05:55:01.857Z,407.0
2022-12-08T06:00:03.288Z,353.6
2022-12-08T06:05:02.293Z,337.6
2022-12-08T06:10:02.440Z,344.8
2022-12-08T06:15:01.705Z,393.6
2022-12-08T06:20:02.813Z,427.0
2022-12-08T06:25:10.380Z,440.4
2022-12-08T06:30:02.522Z,434.4
2022-12-08T06:35:01.803Z,441.0
2022-12-08T06:40:02.752Z,413.1
2022-12-08T06:50:03.202Z,396.8
2022-12-08T06:55:01.739Z,409.1
2022-12-08T07:00:03.529Z,427.0
2022-12-08T07:05:01.679Z,435.9
2022-12-08T07:10:02.468Z,448.5
2022-12-08T07:15:01.620Z,453.4
2022-12-08T07:20:03.664Z,449.0
2022-12-08T07:25:01.735Z,408.1
2022-12-08T07:30:02.187Z,377.7
2022-12-08T07:35:02.016Z,345.4
2022-12-08T07:40:03.502Z,353.9
2022-12-08T07:55:01.776Z,365.4
2022-12-08T08:00:03.109Z,383.8
2022-12-08T08:10:02.019Z,409.7
2022-12-08T08:15:01.753Z,427.5
2022-12-08T08:20:07.963Z,440.1
2022-12-08T08:25:01.762Z,459.7
2022-12-08T08:30:03.041Z,482.0
2022-12-08T08:35:01.676Z,476.8
2022-12-08T08:40:02.337Z,506.8
2022-12-08T08:45:01.971Z,503.2
2022-12-08T08:50:01.735Z,489.5
2022-12-08T08:55:01.830Z,460.6
2022-12-08T09:00:02.152Z,437.5
2022-12-08T09:05:01.905Z,395.4
2022-12-08T09:10:04.440Z,394.7
2022-12-08T09:15:01.681Z,396.2
2022-12-08T09:20:02.902Z,416.2
2022-12-08T09:25:01.584Z,439.0
2022-12-08T09:30:02.371Z,482.0
2022-12-08T09:35:01.565Z,498.8
2022-12-08T09:40:02.215Z,522.2
2022-12-08T09:45:06.722Z,524.4
2022-12-08T09:50:03.366Z,498.4
2022-12-08T10:00:03.889Z,472.5
2022-12-08T10:05:01.931Z,441.4
2022-12-08T10:10:01.869Z,410.2
2022-12-08T10:15:01.887Z,409.2
2022-12-08T10:20:02.760Z,437.2
2022-12-08T10:40:02.977Z,305.6
2022-12-08T10:45:01.498Z,253.7
2022-12-08T10:50:02.604Z,258.6
2022-12-08T11:10:03.698Z,527.0
2022-12-08T11:15:02.157Z,544.6
2022-12-08T11:20:03.100Z,474.7
2022-12-08T11:40:03.048Z,408.8
2022-12-08T11:45:07.875Z,384.6
2022-12-08T11:50:02.781Z,338.5
2022-12-08T12:10:03.523Z,270.6
2022-12-08T12:30:02.293Z,349.0
2022-12-08T12:35:01.799Z,300.3
2022-12-08T12:40:01.934Z,279.6
2022-12-08T13:00:01.418Z,236.4
2022-12-08T13:05:01.312Z,252.0
2022-12-08T13:10:01.611Z,248.5
2022-12-08T13:15:01.307Z,264.5
2022-12-08T13:20:01.322Z,271.0
2022-12-08T13:25:01.251Z,268.8
2022-12-08T13:40:03.039Z,236.2
2022-12-08T14:10:01.588Z,315.8
2022-12-08T14:15:05.486Z,354.5
2022-12-08T14:20:01.673Z,336.5
2022-12-08T14:40:03.381Z,378.4
2022-12-08T14:45:02.048Z,423.2
2022-12-08T14:50:03.238Z,401.5
2022-12-08T15:30:02.685Z,416.0
2022-12-08T15:35:02.169Z,448.9
2022-12-08T15:50:02.211Z,441.7
2022-12-08T15:55:02.040Z,420.0
2022-12-08T16:00:02.428Z,400.1
2022-12-08T16:30:02.029Z,427.2
2022-12-08T16:35:02.873Z,440.4
2022-12-08T16:40:01.987Z,463.9
2022-12-08T16:50:01.867Z,473.5
2022-12-08T16:55:02.256Z,482.5
2022-12-08T17:00:01.989Z,481.4
2022-12-08T17:05:02.131Z,465.4
2022-12-08T17:10:01.865Z,443.8
2022-12-08T17:20:01.771Z,456.1
2022-12-08T17:25:01.967Z,453.6
2022-12-08T17:40:01.842Z,478.2
2022-12-08T17:50:01.857Z,477.1
2022-12-08T17:55:01.901Z,493.6
2022-12-08T18:05:01.919Z,480.4
2022-12-08T18:20:01.933Z,475.3
2022-12-08T18:25:01.857Z,433.7
2022-12-08T18:40:01.991Z,417.3
2022-12-08T18:55:09.161Z,408.5
2022-12-08T19:05:01.710Z,428.2
2022-12-08T19:10:01.855Z,435.3
2022-12-08T19:15:01.820Z,442.3
2022-12-08T19:20:01.687Z,428.1
2022-12-08T19:25:01.895Z,443.9
2022-12-08T19:35:01.882Z,447.5
2022-12-08T19:40:01.759Z,441.8
2022-12-08T19:50:01.973Z,435.2
2022-12-08T20:00:01.827Z,447.1
2022-12-08T20:10:01.805Z,448.9
2022-12-08T20:20:08.850Z,444.0
2022-12-08T20:25:01.784Z,437.1
2022-12-08T20:35:01.806Z,441.1
2022-12-08T20:55:07.522Z,420.6
2022-12-08T21:05:02.719Z,424.0
2022-12-08T21:10:01.981Z,437.6
2022-12-08T21:20:02.114Z,400.8
2022-12-08T21:25:02.307Z,394.6
2022-12-08T21:35:01.936Z,387.3
2022-12-08T21:40:02.114Z,401.6
2022-12-08T21:50:01.900Z,404.9
2022-12-08T21:55:02.952Z,405.0
2022-12-08T22:05:01.828Z,388.6
2022-12-08T22:10:01.912Z,406.8
2022-12-08T22:20:01.909Z,402.4
2022-12-08T22:25:02.420Z,426.2
2022-12-08T22:35:01.899Z,424.7
2022-12-08T23:05:02.654Z,450.7
2022-12-08T23:10:01.570Z,451.6
2022-12-08T23:20:02.313Z,436.1
2022-12-08T23:25:01.874Z,442.2
2022-12-08T23:30:02.390Z,429.3
2022-12-08T23:35:06.771Z,430.9
2022-12-08T23:55:03.161Z,411.6
